Wilson Maas — 8PSZ — position and weather

sailwx.info

Track history (hours):
 
Tides and Currents Weather Stations Pressure Air Temp Water Temp Dewpoint Dewpoint Depression Visibility Wind Speed Wind Dir Waves Ship Positions

Wilson Maas

Last reported at 2017-Jun-26 04:52 UTC. Time now 2017-Jun-26 05:16 UTC.
Position N 51°26' E 006°44'.

Length 78 m; draft 2.8 m.

Type: Cargo ship. MMSI: 314217000.

Date/timePositionNaut miles runAvg speedWind from/ knotsBaromVisibWave heightAir tempDewpointWater temp
2017-Jun-26 04:52N 51°26' E 006°44'0 0.0
2017-Jun-26 04:28N 51°26' E 006°44'0 0.0
2017-Jun-26 03:58N 51°26' E 006°44'0 0.0
2017-Jun-26 03:28N 51°26' E 006°44'0 0.0
2017-Jun-26 02:55N 51°26' E 006°44'0 0.0
2017-Jun-26 02:28N 51°26' E 006°44'0 0.0
2017-Jun-26 01:58N 51°26' E 006°44'0 0.0
2017-Jun-26 01:28N 51°26' E 006°44'0 0.0
2017-Jun-26 00:58N 51°26' E 006°44'0 0.0
2017-Jun-26 00:28N 51°26' E 006°44'0 0.0
2017-Jun-25 23:58N 51°26' E 006°44'0 0.0
2017-Jun-25 23:30N 51°26' E 006°44'1 2.2
2017-Jun-25 23:00N 51°27' E 006°43'2 4.7
2017-Jun-25 22:30N 51°29' E 006°41'3 5.3
2017-Jun-25 22:00N 51°31' E 006°43'7 4.4
2017-Jun-25 20:31N 51°35' E 006°36'1 6.6
2017-Jun-25 20:23N 51°36' E 006°36'3 5.9
2017-Jun-25 19:55N 51°39' E 006°36'9 5.2
2017-Jun-25 18:13N 51°45' E 006°25'2 5.8
2017-Jun-25 17:55N 51°45' E 006°22'3 6.2
2017-Jun-25 17:30N 51°47' E 006°19'3 7.2
2017-Jun-25 17:00N 51°49' E 006°15'3 6.4
2017-Jun-25 16:30N 51°50' E 006°10'3 6.8
2017-Jun-25 16:00N 51°51' E 006°05'4 7.1
2017-Jun-25 15:30N 51°53' E 005°60'2 4.7
2017-Jun-25 15:00N 51°52' E 005°56'3 6.1
2017-Jun-25 14:30N 51°51' E 005°51'33 6.7
2017-Jun-25 09:35N 51°49' E 004°58'1 9.8
2017-Jun-25 09:30N 51°50' E 004°57'5 9.4
2017-Jun-25 09:00N 51°49' E 004°49'4 9.2
2017-Jun-25 08:31N 51°49' E 004°42'4 8.3
2017-Jun-25 08:00N 51°53' E 004°38'4 7.9
2017-Jun-25 07:30N 51°54' E 004°32'2 4.6
2017-Jun-25 07:00N 51°54' E 004°28'0 0.0
2017-Jun-25 06:31N 51°54' E 004°28'0 0.0
2017-Jun-25 06:00N 51°54' E 004°28'0 0.0
2017-Jun-25 05:30N 51°54' E 004°28'0 0.0
2017-Jun-25 05:00N 51°54' E 004°28'0 0.0
2017-Jun-25 04:30N 51°54' E 004°28'0 0.0
2017-Jun-25 04:00N 51°54' E 004°28'0 0.0
2017-Jun-25 03:29N 51°54' E 004°28'0 0.0
2017-Jun-25 03:00N 51°54' E 004°28'0 0.0
2017-Jun-25 02:30N 51°54' E 004°28'0 0.0
2017-Jun-25 02:00N 51°54' E 004°28'0 0.0
2017-Jun-25 01:29N 51°54' E 004°28'0 0.0
2017-Jun-25 01:00N 51°54' E 004°28'0 0.0
2017-Jun-25 00:30N 51°54' E 004°28'0 0.0
2017-Jun-25 00:01N 51°54' E 004°28'0 0.0
2017-Jun-24 23:30N 51°54' E 004°28'0 0.0
2017-Jun-24 23:00N 51°54' E 004°28'0 0.0
2017-Jun-24 22:30N 51°54' E 004°28'0 0.0
2017-Jun-24 22:00N 51°54' E 004°28'0 0.0
2017-Jun-24 21:30N 51°54' E 004°28'0 0.0
2017-Jun-24 20:59N 51°54' E 004°28'0 0.0
2017-Jun-24 20:30N 51°54' E 004°28'0 0.0
2017-Jun-24 20:00N 51°54' E 004°28'0 0.0
2017-Jun-24 19:30N 51°54' E 004°28'0 0.0
2017-Jun-24 19:00N 51°54' E 004°28'0 0.0
2017-Jun-24 18:30N 51°54' E 004°28'0 0.0
2017-Jun-24 18:00N 51°54' E 004°28'0 0.0
2017-Jun-24 17:30N 51°54' E 004°28'0 0.0
2017-Jun-24 17:00N 51°54' E 004°28'0 0.0
2017-Jun-24 16:30N 51°54' E 004°28'0 0.0
2017-Jun-24 16:00N 51°54' E 004°28'0 0.0
2017-Jun-24 15:30N 51°54' E 004°28'0 0.0
2017-Jun-24 15:00N 51°54' E 004°28'0 0.0
2017-Jun-24 14:00N 51°54' E 004°28'0 0.0
2017-Jun-24 13:30N 51°54' E 004°28'0 0.0
2017-Jun-24 13:00N 51°54' E 004°28'0 0.0
2017-Jun-24 12:29N 51°54' E 004°28'0 0.0
2017-Jun-24 12:00N 51°54' E 004°28'0 0.0
2017-Jun-24 11:30N 51°54' E 004°28'0 0.0
2017-Jun-24 11:00N 51°54' E 004°28'0 0.0
2017-Jun-24 10:30N 51°54' E 004°28'0 0.0
2017-Jun-24 10:00N 51°54' E 004°28'0 0.0
2017-Jun-24 09:30N 51°54' E 004°28'2 3.9
2017-Jun-24 09:00N 51°54' E 004°25'0 0.2
2017-Jun-24 08:30N 51°55' E 004°25'0 0.5
2017-Jun-24 07:30N 51°54' E 004°25'2 3.3
2017-Jun-24 07:00N 51°54' E 004°28'0 0.0
2017-Jun-24 06:30N 51°54' E 004°28'0 0.0
2017-Jun-24 06:00N 51°54' E 004°28'0 0.0
2017-Jun-24 05:30N 51°54' E 004°28'0 0.0
2017-Jun-24 05:00N 51°54' E 004°28'0 0.0
2017-Jun-24 04:30N 51°54' E 004°28'0 0.0
2017-Jun-24 04:01N 51°54' E 004°28'0 0.0
2017-Jun-24 03:30N 51°54' E 004°28'0 0.0
2017-Jun-24 03:00N 51°54' E 004°28'0 0.0
2017-Jun-24 02:30N 51°54' E 004°28'0 0.0
2017-Jun-24 02:00N 51°54' E 004°28'0 0.0
2017-Jun-24 01:30N 51°54' E 004°28'0 0.0
2017-Jun-24 01:00N 51°54' E 004°28'0 0.0
2017-Jun-24 00:30N 51°54' E 004°28'0 0.0
2017-Jun-24 00:00N 51°54' E 004°28'2 3.6
2017-Jun-23 23:30N 51°54' E 004°25'5 9.7
2017-Jun-23 23:00N 51°54' E 004°17'5 9.1
2017-Jun-23 22:30N 51°57' E 004°11'4 8.7
2017-Jun-23 22:00N 51°59' E 004°05'5 9.0
2017-Jun-23 21:31N 52°00' E 003°58'510.5
2017-Jun-23 21:00N 52°01' E 003°50'85 9.0
2017-Jun-23 11:35N 53°22' E 004°32'1310.8
2017-Jun-23 10:24N 53°35' E 004°38'710.4
2017-Jun-23 09:45N 53°41' E 004°42'310.5
2017-Jun-23 09:29N 53°43' E 004°44'268 9.7
2017-Jun-22 05:43N 58°10' E 005°39'210.0
2017-Jun-22 05:30N 58°12' E 005°38'510.1
2017-Jun-22 05:00N 58°17' E 005°38'5 9.6
2017-Jun-22 04:30N 58°22' E 005°36'5 9.8
2017-Jun-22 04:00N 58°26' E 005°33'510.7
2017-Jun-22 03:30N 58°32' E 005°31'510.2
2017-Jun-22 03:00N 58°36' E 005°28'5 9.9
2017-Jun-22 02:30N 58°41' E 005°25'510.1
2017-Jun-22 02:00N 58°46' E 005°22'510.0
2017-Jun-22 01:30N 58°50' E 005°27'511.0
2017-Jun-22 01:00N 58°55' E 005°32'611.3
2017-Jun-22 00:30N 59°01' E 005°33'611.4
2017-Jun-22 00:00N 59°06' E 005°30'5 9.6
2017-Jun-21 23:29N 59°11' E 005°34'611.2
2017-Jun-21 22:59N 59°15' E 005°42'511.2
2017-Jun-21 22:30N 59°19' E 005°49'611.1
2017-Jun-21 22:00N 59°21' E 005°59'4 8.8
2017-Jun-21 21:30N 59°24' E 006°05'4 8.0
2017-Jun-21 21:00N 59°27' E 006°11'510.8
2017-Jun-21 20:29N 59°32' E 006°16'510.5
2017-Jun-21 20:00N 59°37' E 006°19'2 4.5
2017-Jun-21 19:29N 59°39' E 006°22'0 0.0
2017-Jun-21 18:59N 59°39' E 006°22'0 0.0
2017-Jun-21 18:29N 59°39' E 006°22'0 0.0
2017-Jun-21 17:59N 59°39' E 006°22'0 0.0
2017-Jun-21 17:29N 59°39' E 006°22'0 0.0
2017-Jun-21 16:59N 59°39' E 006°22'0 0.0
2017-Jun-21 16:29N 59°39' E 006°22'0 0.0
2017-Jun-21 15:59N 59°39' E 006°22'0 0.0
2017-Jun-21 15:29N 59°39' E 006°22'0 0.0
2017-Jun-21 14:59N 59°39' E 006°22'0 0.0
2017-Jun-21 14:29N 59°39' E 006°22'0 0.0
2017-Jun-21 13:30N 59°39' E 006°22'0 0.3
2017-Jun-21 13:00N 59°39' E 006°21'0 0.7
2017-Jun-21 12:30N 59°39' E 006°21'3 5.5
2017-Jun-21 12:00N 59°36' E 006°19'611.4
2017-Jun-21 11:30N 59°31' E 006°15'511.0
2017-Jun-21 11:00N 59°26' E 006°10'4 7.7
2017-Jun-21 10:30N 59°23' E 006°04'510.0
2017-Jun-21 10:00N 59°19' E 005°59'510.6
2017-Jun-21 09:30N 59°18' E 005°49'510.8
2017-Jun-21 09:00N 59°14' E 005°42'510.9
2017-Jun-21 08:30N 59°10' E 005°35'510.1
2017-Jun-21 08:00N 59°05' E 005°32'510.9
2017-Jun-21 07:30N 58°60' E 005°33'510.3
2017-Jun-21 07:00N 58°54' E 005°32'5 9.8
2017-Jun-21 06:30N 58°50' E 005°29'5 9.3
2017-Jun-21 06:01N 58°46' E 005°24'510.2
2017-Jun-21 05:30N 58°41' E 005°27'510.5
2017-Jun-21 05:00N 58°36' E 005°29'510.7
2017-Jun-21 04:30N 58°31' E 005°33'510.2
2017-Jun-21 04:00N 58°27' E 005°40'510.5
2017-Jun-21 03:30N 58°24' E 005°47'510.1
2017-Jun-21 03:00N 58°20' E 005°54'5 9.9
2017-Jun-21 02:30N 58°17' E 006°02'5 9.9
2017-Jun-21 01:59N 58°14' E 006°10'5 9.9
2017-Jun-21 01:30N 58°12' E 006°17'4 7.8
2017-Jun-21 01:00N 58°09' E 006°23'4 7.7
2017-Jun-21 00:30N 58°06' E 006°27'4 7.5
2017-Jun-21 00:00N 58°04' E 006°33'5 9.1
2017-Jun-20 23:30N 58°02' E 006°41'510.1
2017-Jun-20 23:00N 57°59' E 006°49'510.1
2017-Jun-20 22:30N 57°58' E 006°58'510.1
2017-Jun-20 22:00N 57°56' E 007°07'610.4
2017-Jun-20 21:26N 57°56' E 007°18'710.8
2017-Jun-20 20:46N 57°56' E 007°32'8411.5
2017-Jun-20 13:27N 58°47' E 009°40'1012.2
2017-Jun-20 12:38N 58°51' E 009°57'711.7
2017-Jun-20 12:01N 58°54' E 010°10'211.1
2017-Jun-20 11:52N 58°54' E 010°13'410.8
2017-Jun-20 11:30N 58°56' E 010°20'510.9
2017-Jun-20 11:00N 58°58' E 010°29'611.1
2017-Jun-20 10:30N 59°00' E 010°39'510.6
2017-Jun-20 10:00N 59°02' E 010°49'5 9.3
2017-Jun-20 09:30N 59°02' E 010°58'611.7
2017-Jun-20 09:00N 59°08' E 010°58'3 6.7
2017-Jun-20 08:29N 59°11' E 010°57'0 0.0
2017-Jun-20 07:59N 59°11' E 010°57'0 0.0
2017-Jun-20 07:29N 59°11' E 010°57'0 0.0
2017-Jun-20 06:59N 59°11' E 010°57'0 0.0
2017-Jun-20 06:29N 59°11' E 010°57'0 0.0
2017-Jun-20 05:59N 59°11' E 010°57'0 0.0
2017-Jun-20 05:29N 59°11' E 010°57'0 0.0
2017-Jun-20 04:59N 59°11' E 010°57'0 0.0
2017-Jun-20 04:29N 59°11' E 010°57'0 0.0
2017-Jun-20 03:59N 59°11' E 010°57'0 0.0
2017-Jun-20 03:29N 59°11' E 010°57'0 0.0
2017-Jun-20 02:59N 59°11' E 010°57'0 0.0
2017-Jun-20 02:29N 59°11' E 010°57'0 0.0
2017-Jun-20 01:59N 59°11' E 010°57'0 0.0
2017-Jun-20 01:29N 59°11' E 010°57'0 0.0
2017-Jun-20 00:59N 59°11' E 010°57'0 0.0
2017-Jun-20 00:29N 59°11' E 010°57'0 0.0
2017-Jun-19 23:59N 59°11' E 010°57'0 0.0
2017-Jun-19 23:29N 59°11' E 010°57'0 0.0
2017-Jun-19 22:59N 59°11' E 010°57'0 0.0
2017-Jun-19 22:29N 59°11' E 010°57'0 0.0
2017-Jun-19 21:59N 59°11' E 010°57'0 0.0
2017-Jun-19 21:29N 59°11' E 010°57'0 0.0
2017-Jun-19 20:59N 59°11' E 010°57'0 0.0
2017-Jun-19 20:29N 59°11' E 010°57'0 0.0
2017-Jun-19 19:59N 59°11' E 010°57'0 0.0
2017-Jun-19 19:29N 59°11' E 010°57'0 0.0
2017-Jun-19 18:59N 59°11' E 010°57'0 0.0
2017-Jun-19 18:29N 59°11' E 010°57'0 0.0
2017-Jun-19 17:59N 59°11' E 010°57'0 0.0
2017-Jun-19 17:29N 59°11' E 010°57'0 0.0
2017-Jun-19 16:59N 59°11' E 010°57'0 0.0
2017-Jun-19 16:29N 59°11' E 010°57'0 0.0
2017-Jun-19 15:59N 59°11' E 010°57'0 0.0
2017-Jun-19 15:29N 59°11' E 010°57'0 0.0
2017-Jun-19 14:59N 59°11' E 010°57'2 2.1
2017-Jun-19 14:00N 59°09' E 010°57'2 3.3
2017-Jun-19 13:30N 59°08' E 010°54'4 8.6
2017-Jun-19 13:00N 59°10' E 010°46'5 9.6
2017-Jun-19 12:30N 59°14' E 010°43'5 9.7
2017-Jun-19 12:00N 59°19' E 010°40'510.2
2017-Jun-19 11:30N 59°23' E 010°34'3 5.4
2017-Jun-19 10:58N 59°25' E 010°30'0 0.0
2017-Jun-19 10:28N 59°25' E 010°30'0 0.0
2017-Jun-19 09:58N 59°25' E 010°30'0 0.0
2017-Jun-19 09:28N 59°25' E 010°30'0 0.0
2017-Jun-19 08:58N 59°25' E 010°30'0 0.0
2017-Jun-19 08:28N 59°25' E 010°30'0 0.0
2017-Jun-19 07:58N 59°25' E 010°30'0 0.0
2017-Jun-19 07:28N 59°25' E 010°30'0 0.0
2017-Jun-19 06:58N 59°25' E 010°30'0 0.0
2017-Jun-19 06:28N 59°25' E 010°30'0 0.0
2017-Jun-19 05:58N 59°25' E 010°30'0 0.0
2017-Jun-19 05:28N 59°25' E 010°30'0 0.0
2017-Jun-19 04:58N 59°25' E 010°30'0 0.0
2017-Jun-19 04:28N 59°25' E 010°30'0 0.0
2017-Jun-19 03:58N 59°25' E 010°30'0 0.0
2017-Jun-19 03:28N 59°25' E 010°30'0 0.0
2017-Jun-19 02:58N 59°25' E 010°30'0 0.0
2017-Jun-19 02:28N 59°25' E 010°30'0 0.0
2017-Jun-19 01:58N 59°25' E 010°30'0 0.0
2017-Jun-19 01:28N 59°25' E 010°30'0 0.0
2017-Jun-19 00:58N 59°25' E 010°30'0 0.0
2017-Jun-19 00:28N 59°25' E 010°30'0 0.0
2017-Jun-18 23:58N 59°25' E 010°30'0 0.0
2017-Jun-18 23:28N 59°25' E 010°30'0 0.0
2017-Jun-18 22:58N 59°25' E 010°30'0 0.0
2017-Jun-18 22:28N 59°25' E 010°30'0 0.0
2017-Jun-18 21:58N 59°25' E 010°30'0 0.0
2017-Jun-18 21:28N 59°25' E 010°30'0 0.0
2017-Jun-18 20:58N 59°25' E 010°30'0 0.0
2017-Jun-18 20:28N 59°25' E 010°30'0 0.0
2017-Jun-18 19:58N 59°25' E 010°30'0 0.0
2017-Jun-18 19:28N 59°25' E 010°30'0 0.0
2017-Jun-18 18:58N 59°25' E 010°30'0 0.0
2017-Jun-18 18:28N 59°25' E 010°30'0 0.0
2017-Jun-18 17:58N 59°25' E 010°30'0 0.0
2017-Jun-18 17:28N 59°25' E 010°30'0 0.0
2017-Jun-18 16:58N 59°25' E 010°30'0 0.0
2017-Jun-18 16:28N 59°25' E 010°30'0 0.4
2017-Jun-18 16:00N 59°25' E 010°30'4 8.9
2017-Jun-18 15:30N 59°20' E 010°32'5 9.6
2017-Jun-18 15:00N 59°16' E 010°35'1010.0
2017-Jun-18 14:00N 59°06' E 010°34'5 9.3
2017-Jun-18 13:31N 59°01' E 010°34'5 9.1
2017-Jun-18 13:01N 58°57' E 010°30'5 9.5
2017-Jun-18 12:31N 58°54' E 010°23'5 9.6
2017-Jun-18 12:01N 58°50' E 010°17'5 9.5
2017-Jun-18 11:30N 58°47' E 010°11'5 9.5
2017-Jun-18 11:00N 58°42' E 010°06'510.4
2017-Jun-18 10:31N 58°38' E 010°01'510.2
2017-Jun-18 10:00N 58°34' E 009°55'610.0
2017-Jun-18 09:23N 58°29' E 009°47'5110.3
2017-Jun-18 04:22N 57°50' E 008°45'411.3
2017-Jun-18 04:00N 57°47' E 008°39'611.2
2017-Jun-18 03:27N 57°43' E 008°30'511.3
2017-Jun-18 02:59N 57°39' E 008°23'611.6
2017-Jun-18 02:30N 57°35' E 008°16'611.4
2017-Jun-18 01:59N 57°31' E 008°09'611.2
2017-Jun-18 01:29N 57°26' E 008°02'511.3
2017-Jun-18 01:00N 57°22' E 007°56'611.4
2017-Jun-18 00:30N 57°18' E 007°49'611.3
2017-Jun-17 23:59N 57°13' E 007°43'611.1
2017-Jun-17 23:29N 57°09' E 007°36'510.9
2017-Jun-17 23:00N 57°05' E 007°30'510.7
2017-Jun-17 22:30N 57°02' E 007°22'3 2.9
2017-Jun-17 21:35N 56°59' E 007°22'211.2
2017-Jun-17 21:27N 56°58' E 007°21'511.0
2017-Jun-17 20:58N 56°53' E 007°17'292 9.6
2017-Jun-16 14:38N 52°26' E 003°53'3 9.1
2017-Jun-16 14:18N 52°23' E 003°52'7 8.7
2017-Jun-16 13:30N 52°16' E 003°54'712.8
2017-Jun-16 13:00N 52°09' E 003°54'3 5.4
2017-Jun-16 12:30N 52°07' E 003°55'5 9.8
2017-Jun-16 12:00N 52°03' E 003°59'510.0
2017-Jun-16 11:30N 51°59' E 004°05'611.5
2017-Jun-16 11:00N 51°56' E 004°13'510.7
2017-Jun-16 10:30N 51°54' E 004°21'2 2.4
2017-Jun-16 09:30N 51°55' E 004°25'0 0.0
2017-Jun-16 09:00N 51°55' E 004°25'0 0.0
2017-Jun-16 08:30N 51°55' E 004°25'0 0.0
2017-Jun-16 08:00N 51°55' E 004°25'0 0.0
2017-Jun-16 07:30N 51°55' E 004°25'0 0.0
2017-Jun-16 07:00N 51°55' E 004°25'0 0.0
2017-Jun-16 06:30N 51°55' E 004°25'0 0.0
2017-Jun-16 06:00N 51°55' E 004°25'0 0.0
2017-Jun-16 05:30N 51°55' E 004°25'0 0.0
2017-Jun-16 05:00N 51°55' E 004°25'  
Track history (hours):
 
Tides and Currents Weather Stations Pressure Air Temp Water Temp Dewpoint Dewpoint Depression Visibility Wind Speed Wind Dir Waves Ship Positions

Wilson Maas

Last reported at 2017-Jun-26 04:52 UTC. Time now 2017-Jun-26 05:16 UTC.
Position N 51°26' E 006°44'.

Length 78 m; draft 2.8 m.

Type: Cargo ship. MMSI: 314217000.

Date/timePositionNaut miles runAvg speedWind from/ knotsBaromVisibWave heightAir tempDewpointWater temp
2017-Jun-26 04:52N 51°26' E 006°44'0 0.0
2017-Jun-26 04:28N 51°26' E 006°44'0 0.0
2017-Jun-26 03:58N 51°26' E 006°44'0 0.0
2017-Jun-26 03:28N 51°26' E 006°44'0 0.0
2017-Jun-26 02:55N 51°26' E 006°44'0 0.0
2017-Jun-26 02:28N 51°26' E 006°44'0 0.0
2017-Jun-26 01:58N 51°26' E 006°44'0 0.0
2017-Jun-26 01:28N 51°26' E 006°44'0 0.0
2017-Jun-26 00:58N 51°26' E 006°44'0 0.0
2017-Jun-26 00:28N 51°26' E 006°44'0 0.0
2017-Jun-25 23:58N 51°26' E 006°44'0 0.0
2017-Jun-25 23:30N 51°26' E 006°44'1 2.2
2017-Jun-25 23:00N 51°27' E 006°43'2 4.7
2017-Jun-25 22:30N 51°29' E 006°41'3 5.3
2017-Jun-25 22:00N 51°31' E 006°43'7 4.4
2017-Jun-25 20:31N 51°35' E 006°36'1 6.6
2017-Jun-25 20:23N 51°36' E 006°36'3 5.9
2017-Jun-25 19:55N 51°39' E 006°36'9 5.2
2017-Jun-25 18:13N 51°45' E 006°25'2 5.8
2017-Jun-25 17:55N 51°45' E 006°22'3 6.2
2017-Jun-25 17:30N 51°47' E 006°19'3 7.2
2017-Jun-25 17:00N 51°49' E 006°15'3 6.4
2017-Jun-25 16:30N 51°50' E 006°10'3 6.8
2017-Jun-25 16:00N 51°51' E 006°05'4 7.1
2017-Jun-25 15:30N 51°53' E 005°60'2 4.7
2017-Jun-25 15:00N 51°52' E 005°56'3 6.1
2017-Jun-25 14:30N 51°51' E 005°51'33 6.7
2017-Jun-25 09:35N 51°49' E 004°58'1 9.8
2017-Jun-25 09:30N 51°50' E 004°57'5 9.4
2017-Jun-25 09:00N 51°49' E 004°49'4 9.2
2017-Jun-25 08:31N 51°49' E 004°42'4 8.3
2017-Jun-25 08:00N 51°53' E 004°38'4 7.9
2017-Jun-25 07:30N 51°54' E 004°32'2 4.6
2017-Jun-25 07:00N 51°54' E 004°28'0 0.0
2017-Jun-25 06:31N 51°54' E 004°28'0 0.0
2017-Jun-25 06:00N 51°54' E 004°28'0 0.0
2017-Jun-25 05:30N 51°54' E 004°28'0 0.0
2017-Jun-25 05:00N 51°54' E 004°28'0 0.0
2017-Jun-25 04:30N 51°54' E 004°28'0 0.0
2017-Jun-25 04:00N 51°54' E 004°28'0 0.0
2017-Jun-25 03:29N 51°54' E 004°28'0 0.0
2017-Jun-25 03:00N 51°54' E 004°28'0 0.0
2017-Jun-25 02:30N 51°54' E 004°28'0 0.0
2017-Jun-25 02:00N 51°54' E 004°28'0 0.0
2017-Jun-25 01:29N 51°54' E 004°28'0 0.0
2017-Jun-25 01:00N 51°54' E 004°28'0 0.0
2017-Jun-25 00:30N 51°54' E 004°28'0 0.0
2017-Jun-25 00:01N 51°54' E 004°28'0 0.0
2017-Jun-24 23:30N 51°54' E 004°28'0 0.0
2017-Jun-24 23:00N 51°54' E 004°28'0 0.0
2017-Jun-24 22:30N 51°54' E 004°28'0 0.0
2017-Jun-24 22:00N 51°54' E 004°28'0 0.0
2017-Jun-24 21:30N 51°54' E 004°28'0 0.0
2017-Jun-24 20:59N 51°54' E 004°28'0 0.0
2017-Jun-24 20:30N 51°54' E 004°28'0 0.0
2017-Jun-24 20:00N 51°54' E 004°28'0 0.0
2017-Jun-24 19:30N 51°54' E 004°28'0 0.0
2017-Jun-24 19:00N 51°54' E 004°28'0 0.0
2017-Jun-24 18:30N 51°54' E 004°28'0 0.0
2017-Jun-24 18:00N 51°54' E 004°28'0 0.0
2017-Jun-24 17:30N 51°54' E 004°28'0 0.0
2017-Jun-24 17:00N 51°54' E 004°28'0 0.0
2017-Jun-24 16:30N 51°54' E 004°28'0 0.0
2017-Jun-24 16:00N 51°54' E 004°28'0 0.0
2017-Jun-24 15:30N 51°54' E 004°28'0 0.0
2017-Jun-24 15:00N 51°54' E 004°28'0 0.0
2017-Jun-24 14:00N 51°54' E 004°28'0 0.0
2017-Jun-24 13:30N 51°54' E 004°28'0 0.0
2017-Jun-24 13:00N 51°54' E 004°28'0 0.0
2017-Jun-24 12:29N 51°54' E 004°28'0 0.0
2017-Jun-24 12:00N 51°54' E 004°28'0 0.0
2017-Jun-24 11:30N 51°54' E 004°28'0 0.0
2017-Jun-24 11:00N 51°54' E 004°28'0 0.0
2017-Jun-24 10:30N 51°54' E 004°28'0 0.0
2017-Jun-24 10:00N 51°54' E 004°28'0 0.0
2017-Jun-24 09:30N 51°54' E 004°28'2 3.9
2017-Jun-24 09:00N 51°54' E 004°25'0 0.2
2017-Jun-24 08:30N 51°55' E 004°25'0 0.5
2017-Jun-24 07:30N 51°54' E 004°25'2 3.3
2017-Jun-24 07:00N 51°54' E 004°28'0 0.0
2017-Jun-24 06:30N 51°54' E 004°28'0 0.0
2017-Jun-24 06:00N 51°54' E 004°28'0 0.0
2017-Jun-24 05:30N 51°54' E 004°28'0 0.0
2017-Jun-24 05:00N 51°54' E 004°28'0 0.0
2017-Jun-24 04:30N 51°54' E 004°28'0 0.0
2017-Jun-24 04:01N 51°54' E 004°28'0 0.0
2017-Jun-24 03:30N 51°54' E 004°28'0 0.0
2017-Jun-24 03:00N 51°54' E 004°28'0 0.0
2017-Jun-24 02:30N 51°54' E 004°28'0 0.0
2017-Jun-24 02:00N 51°54' E 004°28'0 0.0
2017-Jun-24 01:30N 51°54' E 004°28'0 0.0
2017-Jun-24 01:00N 51°54' E 004°28'0 0.0
2017-Jun-24 00:30N 51°54' E 004°28'0 0.0
2017-Jun-24 00:00N 51°54' E 004°28'2 3.6
2017-Jun-23 23:30N 51°54' E 004°25'5 9.7
2017-Jun-23 23:00N 51°54' E 004°17'5 9.1
2017-Jun-23 22:30N 51°57' E 004°11'4 8.7
2017-Jun-23 22:00N 51°59' E 004°05'5 9.0
2017-Jun-23 21:31N 52°00' E 003°58'510.5
2017-Jun-23 21:00N 52°01' E 003°50'85 9.0
2017-Jun-23 11:35N 53°22' E 004°32'1310.8
2017-Jun-23 10:24N 53°35' E 004°38'710.4
2017-Jun-23 09:45N 53°41' E 004°42'310.5
2017-Jun-23 09:29N 53°43' E 004°44'268 9.7
2017-Jun-22 05:43N 58°10' E 005°39'210.0
2017-Jun-22 05:30N 58°12' E 005°38'510.1
2017-Jun-22 05:00N 58°17' E 005°38'5 9.6
2017-Jun-22 04:30N 58°22' E 005°36'5 9.8
2017-Jun-22 04:00N 58°26' E 005°33'510.7
2017-Jun-22 03:30N 58°32' E 005°31'510.2
2017-Jun-22 03:00N 58°36' E 005°28'5 9.9
2017-Jun-22 02:30N 58°41' E 005°25'510.1
2017-Jun-22 02:00N 58°46' E 005°22'510.0
2017-Jun-22 01:30N 58°50' E 005°27'511.0
2017-Jun-22 01:00N 58°55' E 005°32'611.3
2017-Jun-22 00:30N 59°01' E 005°33'611.4
2017-Jun-22 00:00N 59°06' E 005°30'5 9.6
2017-Jun-21 23:29N 59°11' E 005°34'611.2
2017-Jun-21 22:59N 59°15' E 005°42'511.2
2017-Jun-21 22:30N 59°19' E 005°49'611.1
2017-Jun-21 22:00N 59°21' E 005°59'4 8.8
2017-Jun-21 21:30N 59°24' E 006°05'4 8.0
2017-Jun-21 21:00N 59°27' E 006°11'510.8
2017-Jun-21 20:29N 59°32' E 006°16'510.5
2017-Jun-21 20:00N 59°37' E 006°19'2 4.5
2017-Jun-21 19:29N 59°39' E 006°22'0 0.0
2017-Jun-21 18:59N 59°39' E 006°22'0 0.0
2017-Jun-21 18:29N 59°39' E 006°22'0 0.0
2017-Jun-21 17:59N 59°39' E 006°22'0 0.0
2017-Jun-21 17:29N 59°39' E 006°22'0 0.0
2017-Jun-21 16:59N 59°39' E 006°22'0 0.0
2017-Jun-21 16:29N 59°39' E 006°22'0 0.0
2017-Jun-21 15:59N 59°39' E 006°22'0 0.0
2017-Jun-21 15:29N 59°39' E 006°22'0 0.0
2017-Jun-21 14:59N 59°39' E 006°22'0 0.0
2017-Jun-21 14:29N 59°39' E 006°22'0 0.0
2017-Jun-21 13:30N 59°39' E 006°22'0 0.3
2017-Jun-21 13:00N 59°39' E 006°21'0 0.7
2017-Jun-21 12:30N 59°39' E 006°21'3 5.5
2017-Jun-21 12:00N 59°36' E 006°19'611.4
2017-Jun-21 11:30N 59°31' E 006°15'511.0
2017-Jun-21 11:00N 59°26' E 006°10'4 7.7
2017-Jun-21 10:30N 59°23' E 006°04'510.0
2017-Jun-21 10:00N 59°19' E 005°59'510.6
2017-Jun-21 09:30N 59°18' E 005°49'510.8
2017-Jun-21 09:00N 59°14' E 005°42'510.9
2017-Jun-21 08:30N 59°10' E 005°35'510.1
2017-Jun-21 08:00N 59°05' E 005°32'510.9
2017-Jun-21 07:30N 58°60' E 005°33'510.3
2017-Jun-21 07:00N 58°54' E 005°32'5 9.8
2017-Jun-21 06:30N 58°50' E 005°29'5 9.3
2017-Jun-21 06:01N 58°46' E 005°24'510.2
2017-Jun-21 05:30N 58°41' E 005°27'510.5
2017-Jun-21 05:00N 58°36' E 005°29'510.7
2017-Jun-21 04:30N 58°31' E 005°33'510.2
2017-Jun-21 04:00N 58°27' E 005°40'510.5
2017-Jun-21 03:30N 58°24' E 005°47'510.1
2017-Jun-21 03:00N 58°20' E 005°54'5 9.9
2017-Jun-21 02:30N 58°17' E 006°02'5 9.9
2017-Jun-21 01:59N 58°14' E 006°10'5 9.9
2017-Jun-21 01:30N 58°12' E 006°17'4 7.8
2017-Jun-21 01:00N 58°09' E 006°23'4 7.7
2017-Jun-21 00:30N 58°06' E 006°27'4 7.5
2017-Jun-21 00:00N 58°04' E 006°33'5 9.1
2017-Jun-20 23:30N 58°02' E 006°41'510.1
2017-Jun-20 23:00N 57°59' E 006°49'510.1
2017-Jun-20 22:30N 57°58' E 006°58'510.1
2017-Jun-20 22:00N 57°56' E 007°07'610.4
2017-Jun-20 21:26N 57°56' E 007°18'710.8
2017-Jun-20 20:46N 57°56' E 007°32'8411.5
2017-Jun-20 13:27N 58°47' E 009°40'1012.2
2017-Jun-20 12:38N 58°51' E 009°57'711.7
2017-Jun-20 12:01N 58°54' E 010°10'211.1
2017-Jun-20 11:52N 58°54' E 010°13'410.8
2017-Jun-20 11:30N 58°56' E 010°20'510.9
2017-Jun-20 11:00N 58°58' E 010°29'611.1
2017-Jun-20 10:30N 59°00' E 010°39'510.6
2017-Jun-20 10:00N 59°02' E 010°49'5 9.3
2017-Jun-20 09:30N 59°02' E 010°58'611.7
2017-Jun-20 09:00N 59°08' E 010°58'3 6.7
2017-Jun-20 08:29N 59°11' E 010°57'0 0.0
2017-Jun-20 07:59N 59°11' E 010°57'0 0.0
2017-Jun-20 07:29N 59°11' E 010°57'0 0.0
2017-Jun-20 06:59N 59°11' E 010°57'0 0.0
2017-Jun-20 06:29N 59°11' E 010°57'0 0.0
2017-Jun-20 05:59N 59°11' E 010°57'0 0.0
2017-Jun-20 05:29N 59°11' E 010°57'0 0.0
2017-Jun-20 04:59N 59°11' E 010°57'0 0.0
2017-Jun-20 04:29N 59°11' E 010°57'0 0.0
2017-Jun-20 03:59N 59°11' E 010°57'0 0.0
2017-Jun-20 03:29N 59°11' E 010°57'0 0.0
2017-Jun-20 02:59N 59°11' E 010°57'0 0.0
2017-Jun-20 02:29N 59°11' E 010°57'0 0.0
2017-Jun-20 01:59N 59°11' E 010°57'0 0.0
2017-Jun-20 01:29N 59°11' E 010°57'0 0.0
2017-Jun-20 00:59N 59°11' E 010°57'0 0.0
2017-Jun-20 00:29N 59°11' E 010°57'0 0.0
2017-Jun-19 23:59N 59°11' E 010°57'0 0.0
2017-Jun-19 23:29N 59°11' E 010°57'0 0.0
2017-Jun-19 22:59N 59°11' E 010°57'0 0.0
2017-Jun-19 22:29N 59°11' E 010°57'0 0.0
2017-Jun-19 21:59N 59°11' E 010°57'0 0.0
2017-Jun-19 21:29N 59°11' E 010°57'0 0.0
2017-Jun-19 20:59N 59°11' E 010°57'0 0.0
2017-Jun-19 20:29N 59°11' E 010°57'0 0.0
2017-Jun-19 19:59N 59°11' E 010°57'0 0.0
2017-Jun-19 19:29N 59°11' E 010°57'0 0.0
2017-Jun-19 18:59N 59°11' E 010°57'0 0.0
2017-Jun-19 18:29N 59°11' E 010°57'0 0.0
2017-Jun-19 17:59N 59°11' E 010°57'0 0.0
2017-Jun-19 17:29N 59°11' E 010°57'0 0.0
2017-Jun-19 16:59N 59°11' E 010°57'0 0.0
2017-Jun-19 16:29N 59°11' E 010°57'0 0.0
2017-Jun-19 15:59N 59°11' E 010°57'0 0.0
2017-Jun-19 15:29N 59°11' E 010°57'0 0.0
2017-Jun-19 14:59N 59°11' E 010°57'2 2.1
2017-Jun-19 14:00N 59°09' E 010°57'2 3.3
2017-Jun-19 13:30N 59°08' E 010°54'4 8.6
2017-Jun-19 13:00N 59°10' E 010°46'5 9.6
2017-Jun-19 12:30N 59°14' E 010°43'5 9.7
2017-Jun-19 12:00N 59°19' E 010°40'510.2
2017-Jun-19 11:30N 59°23' E 010°34'3 5.4
2017-Jun-19 10:58N 59°25' E 010°30'0 0.0
2017-Jun-19 10:28N 59°25' E 010°30'0 0.0
2017-Jun-19 09:58N 59°25' E 010°30'0 0.0
2017-Jun-19 09:28N 59°25' E 010°30'0 0.0
2017-Jun-19 08:58N 59°25' E 010°30'0 0.0
2017-Jun-19 08:28N 59°25' E 010°30'0 0.0
2017-Jun-19 07:58N 59°25' E 010°30'0 0.0
2017-Jun-19 07:28N 59°25' E 010°30'0 0.0
2017-Jun-19 06:58N 59°25' E 010°30'0 0.0
2017-Jun-19 06:28N 59°25' E 010°30'0 0.0
2017-Jun-19 05:58N 59°25' E 010°30'0 0.0
2017-Jun-19 05:28N 59°25' E 010°30'0 0.0
2017-Jun-19 04:58N 59°25' E 010°30'0 0.0
2017-Jun-19 04:28N 59°25' E 010°30'0 0.0
2017-Jun-19 03:58N 59°25' E 010°30'0 0.0
2017-Jun-19 03:28N 59°25' E 010°30'0 0.0
2017-Jun-19 02:58N 59°25' E 010°30'0 0.0
2017-Jun-19 02:28N 59°25' E 010°30'0 0.0
2017-Jun-19 01:58N 59°25' E 010°30'0 0.0
2017-Jun-19 01:28N 59°25' E 010°30'0 0.0
2017-Jun-19 00:58N 59°25' E 010°30'0 0.0
2017-Jun-19 00:28N 59°25' E 010°30'0 0.0
2017-Jun-18 23:58N 59°25' E 010°30'0 0.0
2017-Jun-18 23:28N 59°25' E 010°30'0 0.0
2017-Jun-18 22:58N 59°25' E 010°30'0 0.0
2017-Jun-18 22:28N 59°25' E 010°30'0 0.0
2017-Jun-18 21:58N 59°25' E 010°30'0 0.0
2017-Jun-18 21:28N 59°25' E 010°30'0 0.0
2017-Jun-18 20:58N 59°25' E 010°30'0 0.0
2017-Jun-18 20:28N 59°25' E 010°30'0 0.0
2017-Jun-18 19:58N 59°25' E 010°30'0 0.0
2017-Jun-18 19:28N 59°25' E 010°30'0 0.0
2017-Jun-18 18:58N 59°25' E 010°30'0 0.0
2017-Jun-18 18:28N 59°25' E 010°30'0 0.0
2017-Jun-18 17:58N 59°25' E 010°30'0 0.0
2017-Jun-18 17:28N 59°25' E 010°30'0 0.0
2017-Jun-18 16:58N 59°25' E 010°30'0 0.0
2017-Jun-18 16:28N 59°25' E 010°30'0 0.4
2017-Jun-18 16:00N 59°25' E 010°30'4 8.9
2017-Jun-18 15:30N 59°20' E 010°32'5 9.6
2017-Jun-18 15:00N 59°16' E 010°35'1010.0
2017-Jun-18 14:00N 59°06' E 010°34'5 9.3
2017-Jun-18 13:31N 59°01' E 010°34'5 9.1
2017-Jun-18 13:01N 58°57' E 010°30'5 9.5
2017-Jun-18 12:31N 58°54' E 010°23'5 9.6
2017-Jun-18 12:01N 58°50' E 010°17'5 9.5
2017-Jun-18 11:30N 58°47' E 010°11'5 9.5
2017-Jun-18 11:00N 58°42' E 010°06'510.4
2017-Jun-18 10:31N 58°38' E 010°01'510.2
2017-Jun-18 10:00N 58°34' E 009°55'610.0
2017-Jun-18 09:23N 58°29' E 009°47'5110.3
2017-Jun-18 04:22N 57°50' E 008°45'411.3
2017-Jun-18 04:00N 57°47' E 008°39'611.2
2017-Jun-18 03:27N 57°43' E 008°30'511.3
2017-Jun-18 02:59N 57°39' E 008°23'611.6
2017-Jun-18 02:30N 57°35' E 008°16'611.4
2017-Jun-18 01:59N 57°31' E 008°09'611.2
2017-Jun-18 01:29N 57°26' E 008°02'511.3
2017-Jun-18 01:00N 57°22' E 007°56'611.4
2017-Jun-18 00:30N 57°18' E 007°49'611.3
2017-Jun-17 23:59N 57°13' E 007°43'611.1
2017-Jun-17 23:29N 57°09' E 007°36'510.9
2017-Jun-17 23:00N 57°05' E 007°30'510.7
2017-Jun-17 22:30N 57°02' E 007°22'3 2.9
2017-Jun-17 21:35N 56°59' E 007°22'211.2
2017-Jun-17 21:27N 56°58' E 007°21'511.0
2017-Jun-17 20:58N 56°53' E 007°17'292 9.6
2017-Jun-16 14:38N 52°26' E 003°53'3 9.1
2017-Jun-16 14:18N 52°23' E 003°52'7 8.7
2017-Jun-16 13:30N 52°16' E 003°54'712.8
2017-Jun-16 13:00N 52°09' E 003°54'3 5.4
2017-Jun-16 12:30N 52°07' E 003°55'5 9.8
2017-Jun-16 12:00N 52°03' E 003°59'510.0
2017-Jun-16 11:30N 51°59' E 004°05'611.5
2017-Jun-16 11:00N 51°56' E 004°13'510.7
2017-Jun-16 10:30N 51°54' E 004°21'2 2.4
2017-Jun-16 09:30N 51°55' E 004°25'0 0.0
2017-Jun-16 09:00N 51°55' E 004°25'0 0.0
2017-Jun-16 08:30N 51°55' E 004°25'0 0.0
2017-Jun-16 08:00N 51°55' E 004°25'0 0.0
2017-Jun-16 07:30N 51°55' E 004°25'0 0.0
2017-Jun-16 07:00N 51°55' E 004°25'0 0.0
2017-Jun-16 06:30N 51°55' E 004°25'0 0.0
2017-Jun-16 06:00N 51°55' E 004°25'0 0.0
2017-Jun-16 05:30N 51°55' E 004°25'0 0.0
2017-Jun-16 05:00N 51°55' E 004°25'  

Dump ship's entire track history